createdAt,value
2019-03-11T00:02:17.570Z,1.07
2019-03-11T00:04:43.830Z,1.20
2019-03-11T00:07:10.129Z,0.90
2019-03-11T00:09:36.521Z,0.97
2019-03-11T00:12:03.010Z,0.70
2019-03-11T00:14:29.403Z,1.60
2019-03-11T00:16:55.678Z,1.37
2019-03-11T00:19:21.979Z,0.90
2019-03-11T00:21:48.372Z,0.90
2019-03-11T00:24:14.859Z,0.67
2019-03-11T00:26:41.287Z,0.70
2019-03-11T00:29:07.942Z,1.00
2019-03-11T00:31:34.318Z,1.40
2019-03-11T00:34:00.712Z,1.27
2019-03-11T00:36:29.086Z,0.77
2019-03-11T00:38:55.368Z,1.00
2019-03-11T00:41:22.997Z,0.90
2019-03-11T00:43:49.615Z,1.57
2019-03-11T00:46:16.014Z,0.80
2019-03-11T00:48:42.291Z,1.30
2019-03-11T00:51:08.590Z,1.20
2019-03-11T00:53:34.975Z,1.20
2019-03-11T00:56:01.478Z,1.03
2019-03-11T00:58:27.854Z,0.90
2019-03-11T01:00:54.407Z,1.00
2019-03-11T01:03:21.115Z,1.37
2019-03-11T01:05:47.840Z,1.03
2019-03-11T01:08:14.256Z,1.00
2019-03-11T01:10:40.749Z,0.87
2019-03-11T01:13:07.131Z,0.83
2019-03-11T01:15:33.543Z,0.40
2019-03-11T01:17:59.810Z,0.60
2019-03-11T01:20:26.124Z,0.40
2019-03-11T01:22:52.714Z,0.50
2019-03-11T01:25:19.314Z,0.40
2019-03-11T01:27:45.722Z,0.30
2019-03-11T01:30:14.822Z,0.20
2019-03-11T01:32:41.668Z,0.17
2019-03-11T01:35:09.085Z,0.20
2019-03-11T01:37:35.467Z,0.10
2019-03-11T01:40:02.551Z,0.20
2019-03-11T01:42:29.241Z,0.10
2019-03-11T01:44:55.540Z,0.10
2019-03-11T01:47:22.034Z,0.20
2019-03-11T01:49:48.526Z,0.10
2019-03-11T01:52:14.933Z,0.10
2019-03-11T01:54:41.540Z,0.10
2019-03-11T01:57:08.058Z,0.10
2019-03-11T01:59:34.334Z,0.10
2019-03-11T02:02:01.031Z,0.10
2019-03-11T02:04:27.413Z,0.10
2019-03-11T02:06:53.815Z,0.10
2019-03-11T02:09:20.605Z,0.10
2019-03-11T02:11:46.885Z,0.10
2019-03-11T02:14:13.319Z,0.10
2019-03-11T02:16:39.809Z,0.10
2019-03-11T02:19:06.226Z,0.10
2019-03-11T02:21:32.614Z,0.10
2019-03-11T02:23:58.983Z,0.10
2019-03-11T02:26:25.363Z,0.10
2019-03-11T02:28:51.997Z,0.10
2019-03-11T02:31:18.661Z,0.10
2019-03-11T02:33:45.062Z,0.10
2019-03-11T02:36:11.553Z,0.10
2019-03-11T02:38:38.046Z,0.10
2019-03-11T02:41:04.510Z,0.10
2019-03-11T02:43:30.829Z,0.20
2019-03-11T02:45:57.100Z,0.20
2019-03-11T02:48:23.499Z,0.20
2019-03-11T02:50:49.874Z,0.30
2019-03-11T02:53:17.404Z,0.30
2019-03-11T02:55:43.780Z,0.27
2019-03-11T02:58:10.310Z,0.30
2019-03-11T03:00:36.678Z,0.50
2019-03-11T03:03:08.304Z,0.40
2019-03-11T03:05:39.701Z,0.50
2019-03-11T03:08:06.187Z,0.40
2019-03-11T03:10:32.579Z,0.70
2019-03-11T03:12:59.364Z,0.40
2019-03-11T03:15:25.960Z,0.53
2019-03-11T03:17:52.335Z,0.60
2019-03-11T03:20:19.031Z,0.90
2019-03-11T03:22:45.710Z,0.70
2019-03-11T03:25:13.016Z,0.30
2019-03-11T03:27:39.796Z,0.40
2019-03-11T03:30:17.669Z,0.40
2019-03-11T03:32:44.491Z,0.43
2019-03-11T03:35:11.187Z,0.40
2019-03-11T03:37:37.764Z,0.60
2019-03-11T03:40:07.543Z,0.70
2019-03-11T03:42:34.026Z,0.50
2019-03-11T03:45:20.918Z,0.50
2019-03-11T03:47:47.503Z,0.53
2019-03-11T03:50:14.263Z,0.50
2019-03-11T03:52:40.917Z,0.30
2019-03-11T03:55:07.303Z,0.43
2019-03-11T03:57:33.881Z,0.70
2019-03-11T04:00:00.728Z,0.80
2019-03-11T04:02:27.234Z,0.53
2019-03-11T04:04:53.693Z,0.60
2019-03-11T04:07:20.077Z,0.63
2019-03-11T04:09:46.352Z,0.70
2019-03-11T04:12:12.838Z,0.73
2019-03-11T04:14:39.144Z,0.67
2019-03-11T04:17:06.050Z,0.40
2019-03-11T04:19:32.511Z,0.60
2019-03-11T04:21:58.991Z,0.60
2019-03-11T04:24:25.760Z,0.60
2019-03-11T04:26:53.056Z,0.70
2019-03-11T04:29:19.660Z,0.90
2019-03-11T04:31:46.141Z,0.60
2019-03-11T04:34:12.724Z,0.60
2019-03-11T04:36:38.994Z,0.80
2019-03-11T04:39:05.595Z,0.50
2019-03-11T04:41:32.236Z,0.53
2019-03-11T04:43:58.595Z,0.70
2019-03-11T04:46:24.869Z,0.60
2019-03-11T04:48:51.150Z,0.90
2019-03-11T04:51:17.758Z,1.00
2019-03-11T04:56:09.886Z,1.37
2019-03-11T04:58:36.277Z,1.73
2019-03-11T05:01:05.279Z,1.07
2019-03-11T05:03:31.654Z,1.00
2019-03-11T05:05:57.943Z,1.00
2019-03-11T05:08:24.342Z,0.90
2019-03-11T05:10:51.829Z,1.33
2019-03-11T05:13:18.353Z,1.00
2019-03-11T05:15:44.730Z,1.03
2019-03-11T05:18:11.186Z,1.80
2019-03-11T05:20:37.826Z,1.30
2019-03-11T05:23:04.190Z,0.97
2019-03-11T05:25:30.478Z,1.23
2019-03-11T05:27:56.743Z,1.00
2019-03-11T05:30:23.242Z,1.63
2019-03-11T05:32:49.542Z,0.97
2019-03-11T05:35:16.033Z,0.80
2019-03-11T05:37:43.802Z,0.60
2019-03-11T05:40:14.306Z,0.70
2019-03-11T05:42:40.671Z,0.60
2019-03-11T05:45:10.470Z,0.57
2019-03-11T05:47:36.738Z,0.63
2019-03-11T05:50:08.902Z,0.60
2019-03-11T05:52:35.189Z,0.47
2019-03-11T05:55:01.643Z,0.50
2019-03-11T05:57:28.250Z,0.50
2019-03-11T05:59:54.520Z,0.50
2019-03-11T06:02:21.591Z,0.50
2019-03-11T06:04:47.853Z,0.70
2019-03-11T06:07:14.151Z,0.77
2019-03-11T06:09:40.422Z,0.60
2019-03-11T06:12:07.081Z,0.70
2019-03-11T06:14:33.391Z,0.80
2019-03-11T06:17:00.135Z,0.87
2019-03-11T06:19:26.411Z,0.47
2019-03-11T06:22:06.766Z,0.50
2019-03-11T06:24:33.372Z,0.50
2019-03-11T06:27:00.105Z,0.87
2019-03-11T06:29:30.444Z,0.40
2019-03-11T06:31:54.800Z,0.50
2019-03-11T06:34:21.243Z,0.50
2019-03-11T06:36:48.191Z,0.40
2019-03-11T06:39:14.486Z,0.50
2019-03-11T06:41:40.759Z,0.60
2019-03-11T06:44:07.151Z,0.60
2019-03-11T06:46:33.653Z,0.60
2019-03-11T06:49:00.159Z,0.60
2019-03-11T06:51:26.577Z,0.90
2019-03-11T06:53:53.218Z,0.70
2019-03-11T06:56:19.486Z,0.70
2019-03-11T06:58:45.786Z,0.70
2019-03-11T07:01:12.051Z,0.60
2019-03-11T07:03:38.651Z,0.77
2019-03-11T07:06:05.154Z,0.70
2019-03-11T07:08:31.443Z,1.00
2019-03-11T07:10:58.071Z,0.80
2019-03-11T07:13:24.470Z,0.67
2019-03-11T07:15:50.778Z,0.77
2019-03-11T07:18:17.234Z,0.93
2019-03-11T07:20:43.659Z,0.60
2019-03-11T07:23:09.932Z,1.37
2019-03-11T07:25:36.368Z,1.00
2019-03-11T07:28:02.909Z,0.83
2019-03-11T07:30:29.470Z,1.10
2019-03-11T07:32:55.778Z,0.60
2019-03-11T07:35:22.296Z,0.73
2019-03-11T07:37:49.023Z,1.10
2019-03-11T07:40:28.624Z,0.80
2019-03-11T07:42:45.802Z,0.80
2019-03-11T07:45:14.803Z,1.13
2019-03-11T07:47:41.520Z,1.00
2019-03-11T07:50:09.899Z,1.10
2019-03-11T07:52:36.274Z,0.80
2019-03-11T07:55:05.461Z,1.40
2019-03-11T07:57:32.764Z,0.80
2019-03-11T07:59:59.061Z,1.20
2019-03-11T08:02:25.435Z,0.93
2019-03-11T08:04:51.764Z,1.00
2019-03-11T08:07:18.339Z,0.90
2019-03-11T08:09:44.803Z,0.93
2019-03-11T08:12:11.187Z,0.97
2019-03-11T08:14:37.486Z,1.00
2019-03-11T08:17:03.774Z,0.80
2019-03-11T08:19:31.627Z,1.00
2019-03-11T08:21:58.361Z,1.20
2019-03-11T08:24:24.737Z,0.80
2019-03-11T08:26:51.131Z,1.00
2019-03-11T08:29:17.394Z,1.17
2019-03-11T08:31:45.131Z,1.20
2019-03-11T08:34:11.427Z,1.00
2019-03-11T08:36:37.819Z,1.10
2019-03-11T08:39:08.300Z,1.17
2019-03-11T08:41:36.010Z,1.30
2019-03-11T08:44:02.285Z,1.20
2019-03-11T08:46:29.058Z,1.03
2019-03-11T08:48:55.463Z,1.20
2019-03-11T08:51:21.938Z,1.50
2019-03-11T08:53:48.545Z,1.10
2019-03-11T08:56:15.024Z,0.80
2019-03-11T08:58:41.315Z,1.00
2019-03-11T09:01:07.806Z,1.33
2019-03-11T09:03:34.302Z,0.93
2019-03-11T09:06:01.394Z,0.90
2019-03-11T09:08:28.315Z,1.20
2019-03-11T09:10:54.708Z,0.80
2019-03-11T09:13:21.175Z,0.90
2019-03-11T09:15:47.470Z,0.67
2019-03-11T09:18:13.785Z,1.00
2019-03-11T09:20:40.162Z,1.10
2019-03-11T09:23:06.579Z,1.10
2019-03-11T09:25:32.853Z,1.23
2019-03-11T09:27:59.336Z,1.20
2019-03-11T09:30:25.864Z,1.07
2019-03-11T09:32:52.381Z,0.83
2019-03-11T09:35:19.180Z,1.30
2019-03-11T09:37:45.578Z,0.90
2019-03-11T09:40:14.462Z,1.03
2019-03-11T09:42:41.298Z,1.00
2019-03-11T09:45:15.283Z,0.93
2019-03-11T09:47:42.294Z,0.87
2019-03-11T09:50:10.496Z,1.27
2019-03-11T09:52:36.989Z,2.17
2019-03-11T09:55:07.291Z,1.77
2019-03-11T09:57:33.572Z,1.43
2019-03-11T10:00:00.066Z,1.50
2019-03-11T10:02:26.937Z,1.40
2019-03-11T10:04:54.410Z,1.60
2019-03-11T10:07:20.827Z,1.20
2019-03-11T10:09:47.445Z,1.33
2019-03-11T10:12:14.194Z,1.27
2019-03-11T10:14:41.935Z,1.93
2019-03-11T10:17:08.693Z,1.40
2019-03-11T10:19:35.315Z,1.20
2019-03-11T10:22:01.707Z,1.20
2019-03-11T10:24:28.083Z,1.40
2019-03-11T10:26:54.731Z,1.27
2019-03-11T10:29:21.359Z,1.07
2019-03-11T10:31:47.758Z,0.93
2019-03-11T10:34:15.233Z,1.37
2019-03-11T10:36:41.887Z,1.53
2019-03-11T10:39:08.406Z,1.40
2019-03-11T10:41:34.974Z,1.00
2019-03-11T10:44:01.398Z,2.00
2019-03-11T10:46:28.486Z,1.20
2019-03-11T10:48:55.306Z,1.30
2019-03-11T10:51:21.770Z,1.80
2019-03-11T10:53:48.351Z,1.50
2019-03-11T10:56:14.713Z,1.50
2019-03-11T10:58:40.999Z,1.57
2019-03-11T11:01:09.583Z,1.77
2019-03-11T11:03:36.065Z,1.47
2019-03-11T11:06:02.455Z,1.67
2019-03-11T11:08:28.834Z,1.30
2019-03-11T11:10:55.180Z,1.70
2019-03-11T11:13:21.564Z,1.50
2019-03-11T11:15:47.971Z,1.57
2019-03-11T11:18:14.235Z,1.50
2019-03-11T11:20:40.535Z,1.73
2019-03-11T11:23:08.113Z,1.57
2019-03-11T11:25:34.853Z,1.80
2019-03-11T11:28:02.127Z,1.60
2019-03-11T11:30:29.837Z,1.70
2019-03-11T11:32:56.602Z,1.90
2019-03-11T11:35:23.083Z,2.00
2019-03-11T11:37:49.873Z,1.80
2019-03-11T11:40:22.191Z,1.70
2019-03-11T11:42:49.100Z,1.13
2019-03-11T11:45:17.802Z,0.70
2019-03-11T11:47:44.103Z,0.80
2019-03-11T11:50:13.070Z,0.63
2019-03-11T11:52:39.373Z,0.50
2019-03-11T11:55:07.768Z,0.67
2019-03-11T11:57:34.351Z,0.50
2019-03-11T12:00:00.788Z,0.70
2019-03-11T12:02:27.354Z,0.70
2019-03-11T12:04:53.652Z,0.80
2019-03-11T12:07:20.093Z,1.00
2019-03-11T12:09:46.556Z,0.80
2019-03-11T12:12:12.946Z,1.00
2019-03-11T12:14:39.338Z,0.70
2019-03-11T12:17:06.064Z,1.10
2019-03-11T12:19:32.397Z,0.83
2019-03-11T12:21:58.759Z,0.70
2019-03-11T12:24:25.058Z,0.70
2019-03-11T12:26:51.342Z,0.80
2019-03-11T12:29:17.598Z,0.90
2019-03-11T12:31:44.192Z,1.10
2019-03-11T12:34:10.470Z,1.30
2019-03-11T12:36:36.955Z,1.13
2019-03-11T12:39:05.155Z,1.23
2019-03-11T12:41:33.577Z,1.40
2019-03-11T12:43:59.865Z,1.20
2019-03-11T12:46:26.238Z,1.37
2019-03-11T12:48:52.722Z,0.97
2019-03-11T12:51:18.981Z,1.60
2019-03-11T12:53:45.599Z,1.37
2019-03-11T12:56:13.258Z,1.47
2019-03-11T12:58:41.885Z,1.10
2019-03-11T13:01:08.511Z,1.23
2019-03-11T13:03:35.014Z,1.90
2019-03-11T13:06:01.378Z,1.90
2019-03-11T13:08:27.650Z,1.37
2019-03-11T13:10:54.054Z,1.47
2019-03-11T13:13:20.755Z,1.60
2019-03-11T13:15:47.343Z,1.27
2019-03-11T13:18:29.391Z,1.17
2019-03-11T13:20:55.887Z,1.10
2019-03-11T13:23:22.442Z,1.00
2019-03-11T13:25:49.303Z,0.80
2019-03-11T13:28:15.562Z,1.10
2019-03-11T13:30:41.856Z,1.50
2019-03-11T13:33:08.518Z,1.00
2019-03-11T13:35:35.135Z,1.00
2019-03-11T13:38:01.398Z,1.00
2019-03-11T13:40:28.079Z,1.13
2019-03-11T13:42:54.750Z,1.70
2019-03-11T13:45:21.695Z,1.63
2019-03-11T13:47:48.078Z,0.90
2019-03-11T13:50:16.579Z,1.07
2019-03-11T13:52:43.172Z,1.23
2019-03-11T13:55:11.255Z,1.23
2019-03-11T13:57:37.946Z,1.10
2019-03-11T14:00:15.772Z,1.07
2019-03-11T14:02:42.501Z,0.80
2019-03-11T14:05:09.662Z,0.87
2019-03-11T14:07:36.255Z,1.03
2019-03-11T14:10:10.094Z,0.90
2019-03-11T14:12:36.524Z,0.87
2019-03-11T14:15:06.642Z,1.00
2019-03-11T14:17:33.002Z,0.80
2019-03-11T14:19:59.295Z,0.80
2019-03-11T14:22:25.564Z,1.20
2019-03-11T14:24:52.027Z,0.90
2019-03-11T14:27:18.382Z,0.70
2019-03-11T14:29:45.015Z,0.73
2019-03-11T14:32:12.876Z,0.87
2019-03-11T14:34:39.993Z,0.73
2019-03-11T14:37:06.697Z,0.70
2019-03-11T14:39:33.403Z,1.07
2019-03-11T14:41:59.671Z,0.90
2019-03-11T14:44:26.078Z,0.60
2019-03-11T14:46:52.456Z,0.83
2019-03-11T14:49:18.758Z,0.93
2019-03-11T14:51:45.716Z,1.07
2019-03-11T14:54:12.099Z,0.90
2019-03-11T14:56:38.487Z,1.70
2019-03-11T14:59:05.215Z,1.80
2019-03-11T15:01:31.510Z,1.17
2019-03-11T15:03:58.203Z,1.17
2019-03-11T15:06:24.580Z,1.40
2019-03-11T15:08:51.166Z,1.00
2019-03-11T15:11:17.442Z,1.30
2019-03-11T15:13:43.734Z,0.77
2019-03-11T15:16:10.023Z,0.60
2019-03-11T15:18:36.554Z,1.10
2019-03-11T15:21:03.084Z,0.90
2019-03-11T15:23:29.571Z,1.03
2019-03-11T15:25:56.027Z,0.80
2019-03-11T15:28:22.334Z,0.80
2019-03-11T15:30:49.998Z,1.00
2019-03-11T15:33:18.465Z,0.80
2019-03-11T15:35:45.114Z,0.67
2019-03-11T15:38:11.406Z,0.93
2019-03-11T15:40:38.109Z,0.93
2019-03-11T15:43:04.486Z,0.80
2019-03-11T15:45:38.558Z,1.10
2019-03-11T15:47:59.614Z,1.00
2019-03-11T15:50:29.008Z,1.20
2019-03-11T15:52:56.688Z,1.03
2019-03-11T15:55:23.442Z,1.00
2019-03-11T15:57:50.019Z,1.17
2019-03-11T16:00:20.795Z,2.20
2019-03-11T16:02:47.962Z,1.00
2019-03-11T16:05:16.450Z,0.80
2019-03-11T16:07:42.846Z,1.10
2019-03-11T16:10:16.874Z,1.07
2019-03-11T16:12:40.246Z,1.00
2019-03-11T16:15:10.038Z,0.93
2019-03-11T16:17:36.810Z,1.53
2019-03-11T16:20:07.042Z,1.20
2019-03-11T16:22:33.319Z,1.50
2019-03-11T16:25:00.327Z,1.27
2019-03-11T16:27:26.757Z,0.80
2019-03-11T16:29:53.251Z,1.20
2019-03-11T16:32:19.519Z,1.00
2019-03-11T16:34:45.839Z,1.03
2019-03-11T16:37:12.218Z,1.10
2019-03-11T16:39:38.899Z,1.27
2019-03-11T16:42:05.391Z,1.47
2019-03-11T16:44:31.666Z,1.20
2019-03-11T16:46:58.085Z,0.87
2019-03-11T16:49:24.460Z,0.87
2019-03-11T16:51:51.054Z,0.80
2019-03-11T16:54:17.791Z,1.00
2019-03-11T16:56:44.527Z,1.10
2019-03-11T16:59:10.894Z,0.97
2019-03-11T17:01:37.258Z,0.97
2019-03-11T17:04:03.644Z,0.80
2019-03-11T17:06:30.570Z,0.97
2019-03-11T17:08:56.885Z,1.20
2019-03-11T17:11:23.447Z,0.97
2019-03-11T17:13:50.034Z,1.17
2019-03-11T17:16:16.711Z,1.87
2019-03-11T17:18:43.035Z,0.80
2019-03-11T17:21:09.303Z,0.80
2019-03-11T17:23:35.882Z,0.80
2019-03-11T17:26:03.340Z,1.13
2019-03-11T17:28:29.611Z,1.20
2019-03-11T17:30:56.446Z,1.10
2019-03-11T17:33:22.826Z,1.00
2019-03-11T17:35:50.543Z,1.07
2019-03-11T17:38:17.002Z,1.20
2019-03-11T17:40:43.496Z,0.83
2019-03-11T17:43:09.871Z,0.63
2019-03-11T17:45:36.883Z,0.83
2019-03-11T17:48:03.244Z,1.10
2019-03-11T17:50:30.767Z,1.20
2019-03-11T17:52:57.122Z,1.03
2019-03-11T17:55:23.508Z,0.77
2019-03-11T17:57:49.777Z,1.10
2019-03-11T18:00:26.612Z,0.97
2019-03-11T18:02:53.630Z,1.30
2019-03-11T18:05:20.821Z,1.10
2019-03-11T18:07:47.703Z,0.97
2019-03-11T18:10:14.301Z,1.20
2019-03-11T18:12:40.714Z,0.80
2019-03-11T18:15:09.455Z,1.20
2019-03-11T18:17:35.843Z,1.13
2019-03-11T18:20:06.754Z,1.47
2019-03-11T18:22:33.149Z,1.07
2019-03-11T18:24:59.692Z,1.00
2019-03-11T18:27:26.434Z,1.00
2019-03-11T18:29:52.735Z,1.90
2019-03-11T18:32:19.202Z,1.67
2019-03-11T18:34:45.693Z,1.57
2019-03-11T18:37:12.054Z,1.13
2019-03-11T18:39:38.344Z,1.13
2019-03-11T18:42:04.846Z,1.43
2019-03-11T18:44:31.258Z,1.17
2019-03-11T18:46:57.591Z,0.90
2019-03-11T18:49:23.963Z,1.00
2019-03-11T18:51:50.691Z,1.03
2019-03-11T18:54:17.132Z,1.30
2019-03-11T18:56:44.738Z,0.83
2019-03-11T18:59:11.136Z,1.20
2019-03-11T19:01:37.605Z,1.10
2019-03-11T19:04:04.331Z,1.30
2019-03-11T19:06:30.641Z,1.13
2019-03-11T19:08:57.630Z,1.37
2019-03-11T19:11:24.077Z,1.23
2019-03-11T19:13:50.429Z,1.37
2019-03-11T19:16:17.146Z,1.30
2019-03-11T19:18:43.843Z,1.20
2019-03-11T19:21:10.282Z,1.40
2019-03-11T19:23:36.924Z,1.60
2019-03-11T19:26:04.366Z,1.20
2019-03-11T19:28:30.761Z,1.00
2019-03-11T19:30:57.134Z,1.20
2019-03-11T19:33:23.807Z,1.40
2019-03-11T19:35:50.582Z,1.30
2019-03-11T19:38:16.872Z,1.40
2019-03-11T19:40:44.511Z,1.27
2019-03-11T19:43:12.091Z,1.50
2019-03-11T19:45:38.462Z,1.50
2019-03-11T19:48:04.849Z,1.17
2019-03-11T19:50:31.269Z,1.07
2019-03-11T19:52:59.604Z,0.97
2019-03-11T19:55:26.204Z,1.73
2019-03-11T19:57:52.725Z,1.20
2019-03-11T20:00:23.473Z,1.20
2019-03-11T20:02:50.292Z,1.27
2019-03-11T20:05:23.047Z,1.77
2019-03-11T20:07:49.434Z,1.23
2019-03-11T20:10:16.046Z,1.67
2019-03-11T20:12:42.490Z,1.60
2019-03-11T20:15:11.187Z,1.00
2019-03-11T20:17:37.665Z,1.20
2019-03-11T20:20:07.923Z,1.40
2019-03-11T20:22:34.342Z,1.10
2019-03-11T20:25:03.659Z,1.17
2019-03-11T20:27:31.099Z,1.17
2019-03-11T20:29:57.842Z,1.60
2019-03-11T20:32:25.305Z,1.43
2019-03-11T20:34:51.671Z,1.30
2019-03-11T20:37:18.382Z,1.83
2019-03-11T20:39:45.094Z,2.07
2019-03-11T20:42:11.505Z,1.30
2019-03-11T20:44:38.148Z,1.63
2019-03-11T20:47:04.543Z,1.70
2019-03-11T20:49:31.993Z,11.87
2019-03-11T20:51:58.696Z,7.43
2019-03-11T20:54:25.070Z,3.77
2019-03-11T20:56:51.615Z,2.73
2019-03-11T20:59:18.062Z,2.13
2019-03-11T21:01:44.524Z,1.90
2019-03-11T21:04:11.356Z,1.73
2019-03-11T21:06:37.820Z,1.73
2019-03-11T21:09:06.299Z,1.67
2019-03-11T21:11:34.653Z,1.53
2019-03-11T21:14:01.134Z,2.07
2019-03-11T21:16:27.870Z,2.30
2019-03-11T21:18:54.214Z,2.50
2019-03-11T21:21:20.607Z,1.87
2019-03-11T21:23:47.039Z,1.67
2019-03-11T21:26:13.440Z,1.90
2019-03-11T21:28:39.983Z,2.00
2019-03-11T21:31:06.550Z,1.40
2019-03-11T21:33:33.067Z,1.60
2019-03-11T21:35:59.529Z,1.20
2019-03-11T21:38:25.871Z,1.50
2019-03-11T21:40:52.170Z,1.50
2019-03-11T21:43:18.575Z,1.70
2019-03-11T21:45:44.982Z,1.93
2019-03-11T21:48:11.354Z,1.70
2019-03-11T21:50:37.707Z,1.50
2019-03-11T21:53:04.280Z,1.30
2019-03-11T21:55:30.665Z,1.47
2019-03-11T21:57:57.281Z,1.40
2019-03-11T22:00:33.881Z,1.13
2019-03-11T22:02:52.418Z,1.10
2019-03-11T22:05:19.017Z,1.20
2019-03-11T22:07:45.794Z,1.20
2019-03-11T22:10:13.695Z,1.53
2019-03-11T22:12:39.954Z,1.70
2019-03-11T22:15:09.450Z,1.80
2019-03-11T22:17:35.813Z,1.20
2019-03-11T22:20:05.216Z,1.23
2019-03-11T22:22:31.478Z,1.20
2019-03-11T22:24:57.754Z,1.20
2019-03-11T22:27:24.432Z,1.20
2019-03-11T22:29:50.983Z,1.23
2019-03-11T22:32:17.279Z,1.30
2019-03-11T22:34:43.643Z,1.40
2019-03-11T22:37:10.034Z,1.73
2019-03-11T22:39:36.395Z,1.50
2019-03-11T22:42:03.339Z,1.30
2019-03-11T22:44:29.715Z,1.47
2019-03-11T22:46:55.979Z,1.50
2019-03-11T22:49:22.532Z,1.67
2019-03-11T22:51:49.070Z,1.60
2019-03-11T22:54:15.377Z,1.47
2019-03-11T22:56:41.754Z,1.17
2019-03-11T22:59:08.036Z,1.27
2019-03-11T23:01:34.897Z,1.33
2019-03-11T23:04:01.190Z,1.50
2019-03-11T23:06:27.619Z,1.40
2019-03-11T23:08:54.010Z,1.33
2019-03-11T23:11:20.771Z,1.10
2019-03-11T23:13:47.058Z,1.43
2019-03-11T23:16:13.530Z,1.20
2019-03-11T23:18:40.034Z,1.03
2019-03-11T23:21:06.290Z,1.43
2019-03-11T23:23:32.566Z,1.17
2019-03-11T23:25:59.139Z,1.20
2019-03-11T23:28:25.449Z,1.50
2019-03-11T23:30:52.163Z,1.40
2019-03-11T23:33:18.542Z,1.60
2019-03-11T23:35:45.014Z,1.77
2019-03-11T23:38:11.411Z,2.37
2019-03-11T23:40:37.683Z,2.50
2019-03-11T23:43:03.976Z,2.33
2019-03-11T23:45:30.237Z,2.20
2019-03-11T23:47:56.935Z,1.87
2019-03-11T23:50:23.335Z,1.93
2019-03-11T23:52:49.694Z,1.20
2019-03-11T23:55:16.335Z,1.20
2019-03-11T23:57:42.706Z,1.97
